Time;durP1;ratioP1;P1;durP2;ratioP2;P2;SDS_P1;SDS_P2;PMS_P1;PMS_P2;Temp;Humidity;BMP_temperature;BMP_pressure;BME280_temperature;BME280_humidity;BME280_pressure;Samples;Min_cycle;Max_cycle;Signal;HPM_P1;HPM_P2
2024/01/13 00:01:38;;;;;;;21.80;12.95;;;;;;;2.35;100.00;102788.72;5091882;28;20544;-74
2024/01/13 00:04:03;;;;;;;22.73;13.07;;;;;;;2.25;100.00;102772.97;5092388;28;20053;-74
2024/01/13 00:06:29;;;;;;;18.40;12.03;;;;;;;2.29;100.00;102779.09;5100407;28;20384;-74
2024/01/13 00:08:54;;;;;;;20.85;12.25;;;;;;;2.35;100.00;102791.38;5092167;28;20049;-74
2024/01/13 00:11:19;;;;;;;19.13;11.70;;;;;;;2.34;100.00;102780.00;5091591;28;20063;-74
2024/01/13 00:13:45;;;;;;;16.00;10.67;;;;;;;2.33;100.00;102775.63;5102484;28;20065;-74
2024/01/13 00:16:10;;;;;;;20.60;12.17;;;;;;;2.32;100.00;102768.59;5091417;28;20462;-74
2024/01/13 00:18:35;;;;;;;21.80;11.27;;;;;;;2.24;100.00;102746.72;5091848;28;20028;-74
2024/01/13 00:21:01;;;;;;;16.85;12.32;;;;;;;2.39;100.00;102762.50;5091550;28;20024;-74
2024/01/13 00:23:29;;;;;;;33.10;12.35;;;;;;;2.31;100.00;102739.72;5093227;28;20448;-74
2024/01/13 00:25:54;;;;;;;19.25;10.95;;;;;;;2.42;100.00;102769.50;5092175;28;20032;-74
2024/01/13 00:28:19;;;;;;;18.85;11.30;;;;;;;2.39;100.00;102751.13;5090809;28;20040;-74
2024/01/13 00:30:45;;;;;;;21.15;11.93;;;;;;;2.38;100.00;102750.25;5092598;28;20055;-74
2024/01/13 00:33:10;;;;;;;20.55;11.57;;;;;;;2.40;100.00;102751.13;5091247;28;20487;-74
2024/01/13 00:35:39;;;;;;;16.48;11.63;;;;;;;2.31;100.00;102735.34;5091280;28;20036;-74
2024/01/13 00:38:06;;;;;;;17.05;10.73;;;;;;;2.42;100.00;102749.38;5092368;28;20085;-74
2024/01/13 00:40:34;;;;;;;17.73;11.32;;;;;;;2.41;100.00;102739.75;5090372;28;20070;-74
2024/01/13 00:43:00;;;;;;;16.48;10.98;;;;;;;2.42;100.00;102751.13;5090952;28;20031;-74
2024/01/13 00:45:25;;;;;;;17.65;10.48;;;;;;;2.42;100.00;102744.13;5092295;28;20031;-74
2024/01/13 00:47:51;;;;;;;18.30;11.55;;;;;;;2.41;100.00;102737.13;5090658;28;20086;-74
2024/01/13 00:50:16;;;;;;;16.67;10.25;;;;;;;2.38;100.00;102729.25;5092448;28;20073;-74
2024/01/13 00:52:41;;;;;;;17.52;10.63;;;;;;;2.39;100.00;102722.25;5090875;28;20494;-74
2024/01/13 00:55:07;;;;;;;14.73;9.45;;;;;;;2.40;100.00;102718.75;5090392;28;20398;-74
2024/01/13 00:57:33;;;;;;;17.52;10.88;;;;;;;2.39;100.00;102720.50;5091345;28;20494;-74
2024/01/13 00:59:58;;;;;;;16.13;10.13;;;;;;;2.44;100.00;102731.88;5091942;28;20027;-74
2024/01/13 01:02:23;;;;;;;12.13;9.98;;;;;;;2.43;100.00;102732.75;5091930;28;20379;-74
2024/01/13 01:04:49;;;;;;;18.10;11.15;;;;;;;2.39;100.00;102731.00;5091048;28;20020;-74
2024/01/13 01:07:15;;;;;;;18.48;10.35;;;;;;;2.44;100.00;102723.09;5091054;28;20032;-74
2024/01/13 01:09:40;;;;;;;19.88;9.77;;;;;;;2.43;100.00;102722.22;5088525;28;20024;-74
2024/01/13 01:12:06;;;;;;;13.77;10.07;;;;;;;2.41;100.00;102721.38;5090073;28;20102;-74
2024/01/13 01:14:31;;;;;;;14.82;10.15;;;;;;;2.12;100.00;102668.84;5092006;28;20072;-74
2024/01/13 01:16:57;;;;;;;16.73;10.77;;;;;;;2.34;100.00;102705.59;5090220;28;20028;-74
2024/01/13 01:19:24;;;;;;;18.48;10.13;;;;;;;2.39;100.00;102720.50;5090341;28;20074;-74
2024/01/13 01:21:50;;;;;;;15.80;10.35;;;;;;;2.42;100.00;102720.50;5087773;28;20047;-74
2024/01/13 01:24:15;;;;;;;15.98;10.75;;;;;;;2.42;100.00;102715.25;5091929;28;20047;-74
2024/01/13 01:26:40;;;;;;;17.73;9.90;;;;;;;2.36;100.00;102699.50;5089539;28;20052;-74
2024/01/13 01:29:06;;;;;;;18.92;11.48;;;;;;;2.41;100.00;102699.47;5089930;28;20043;-74
2024/01/13 01:31:34;;;;;;;13.23;9.75;;;;;;;2.39;100.00;102696.88;5089610;28;20039;-74
2024/01/13 01:34:02;;;;;;;16.80;10.70;;;;;;;2.34;100.00;102687.22;5091174;28;20517;-74
2024/01/13 01:36:30;;;;;;;15.10;10.32;;;;;;;2.40;100.00;102702.97;5089895;28;20012;-74
2024/01/13 01:38:58;;;;;;;15.65;11.25;;;;;;;2.41;100.00;102694.22;5088579;28;20024;-74
2024/01/13 01:41:27;;;;;;;21.40;11.13;;;;;;;2.32;100.00;102679.34;5090474;28;20020;-74
2024/01/13 01:43:53;;;;;;;16.20;11.20;;;;;;;2.33;100.00;102683.72;5087812;28;20433;-74
2024/01/13 01:46:20;;;;;;;14.10;10.90;;;;;;;2.37;100.00;102681.97;5089946;28;20023;-74
2024/01/13 01:48:46;;;;;;;19.75;11.90;;;;;;;2.37;100.00;102684.59;5088882;28;20039;-74
2024/01/13 01:51:15;;;;;;;16.27;11.70;;;;;;;2.36;100.00;102688.97;5090966;28;20114;-74
2024/01/13 01:53:42;;;;;;;20.10;11.52;;;;;;;2.26;100.00;102680.22;5089496;28;20497;-74
2024/01/13 01:56:12;;;;;;;16.45;11.75;;;;;;;2.36;100.00;102694.22;5089387;28;20046;-74
2024/01/13 01:58:39;;;;;;;15.77;10.70;;;;;;;2.36;100.00;102677.63;5089625;28;20060;-74
2024/01/13 02:01:05;;;;;;;17.45;11.57;;;;;;;2.39;100.00;102681.09;5090351;28;20078;-74
2024/01/13 02:03:33;;;;;;;22.85;12.88;;;;;;;2.29;100.00;102655.69;5089787;28;20017;-74
2024/01/13 02:06:00;;;;;;;18.77;12.45;;;;;;;2.37;100.00;102679.34;5089451;28;20114;-74
2024/01/13 02:08:26;;;;;;;15.38;11.45;;;;;;;2.31;100.00;102663.59;5090675;28;20047;-74
2024/01/13 02:10:51;;;;;;;18.85;11.13;;;;;;;2.38;100.00;102678.47;5088362;28;20028;-74
2024/01/13 02:13:17;;;;;;;16.70;11.63;;;;;;;2.36;100.00;102673.22;5090933;28;20016;-74
2024/01/13 02:15:45;;;;;;;19.38;12.85;;;;;;;2.41;100.00;102675.84;5090205;28;20390;-74
2024/01/13 02:18:12;;;;;;;14.93;11.40;;;;;;;2.41;100.00;102668.88;5089234;28;20043;-74
2024/01/13 02:20:37;;;;;;;17.48;11.65;;;;;;;2.45;100.00;102659.22;5090250;28;20043;-74
2024/01/13 02:23:03;;;;;;;14.18;11.32;;;;;;;2.38;100.00;102646.97;5090563;28;20024;-74
2024/01/13 02:25:28;;;;;;;15.75;12.57;;;;;;;2.32;100.00;102631.22;5088527;28;20540;-74
2024/01/13 02:27:54;;;;;;;19.90;13.63;;;;;;;2.33;100.00;102635.59;5089425;28;20028;-74
2024/01/13 02:30:19;;;;;;;14.23;10.87;;;;;;;2.37;100.00;102643.47;5088488;28;20110;-74
2024/01/13 02:32:44;;;;;;;17.80;12.68;;;;;;;2.36;100.00;102641.72;5089752;28;20028;-74
2024/01/13 02:35:10;;;;;;;18.60;12.77;;;;;;;2.31;100.00;102617.22;5089143;28;20024;-74
2024/01/13 02:37:35;;;;;;;18.50;13.05;;;;;;;2.35;100.00;102628.59;5088182;28;20019;-74
2024/01/13 02:40:01;;;;;;;22.05;14.05;;;;;;;2.34;100.00;102629.47;5089157;28;20394;-74
2024/01/13 02:42:26;;;;;;;17.65;13.18;;;;;;;2.31;100.00;102619.84;5088514;28;20069;-74
2024/01/13 02:44:51;;;;;;;19.45;12.80;;;;;;;2.31;100.00;102618.97;5089092;28;20453;-74
2024/01/13 02:47:24;;;;;;;18.47;13.57;;;;;;;2.37;100.00;102629.47;5090320;28;20073;-75
2024/01/13 02:49:49;;;;;;;21.40;14.32;;;;;;;2.32;100.00;102620.72;5090053;28;20078;-74
2024/01/13 02:52:15;;;;;;;17.77;13.50;;;;;;;2.34;100.00;102625.09;5092518;28;20104;-74
2024/01/13 02:54:40;;;;;;;14.83;12.27;;;;;;;2.16;100.00;102590.97;5088219;28;20020;-74
2024/01/13 02:57:05;;;;;;;20.00;12.93;;;;;;;2.33;100.00;102614.59;5088238;28;20036;-75
2024/01/13 02:59:31;;;;;;;18.63;13.13;;;;;;;2.31;100.00;102611.09;5090182;28;20031;-74
2024/01/13 03:01:56;;;;;;;22.38;13.90;;;;;;;2.25;100.00;102594.47;5089427;28;20035;-74
2024/01/13 03:04:21;;;;;;;19.42;13.80;;;;;;;2.26;100.00;102593.59;5089377;28;20016;-75
2024/01/13 03:06:47;;;;;;;22.27;12.20;;;;;;;2.21;100.00;102586.59;5089981;28;20055;-74
2024/01/13 03:09:12;;;;;;;17.08;12.48;;;;;;;2.34;100.00;102590.97;5088944;28;20081;-74
2024/01/13 03:11:40;;;;;;;14.30;12.23;;;;;;;2.26;100.00;102582.19;5088378;28;20106;-74
2024/01/13 03:14:06;;;;;;;14.60;11.27;;;;;;;2.38;100.00;102597.06;5086260;28;20113;-74
2024/01/13 03:16:31;;;;;;;18.63;12.23;;;;;;;2.36;100.00;102588.34;5090273;28;20103;-74
2024/01/13 03:18:56;;;;;;;17.20;13.87;;;;;;;2.36;100.00;102589.22;5088622;28;20043;-74
2024/01/13 03:21:22;;;;;;;14.43;11.57;;;;;;;2.35;100.00;102582.19;5088387;28;20020;-74
2024/01/13 03:23:48;;;;;;;15.70;12.45;;;;;;;2.30;100.00;102565.59;5087888;28;20026;-74
2024/01/13 03:26:13;;;;;;;14.32;11.75;;;;;;;2.31;100.00;102556.81;5089870;28;20082;-74
2024/01/13 03:28:39;;;;;;;13.70;11.63;;;;;;;2.25;100.00;102539.34;5088589;28;20032;-74
2024/01/13 03:31:04;;;;;;;15.45;11.43;;;;;;;2.38;100.00;102550.72;5088368;28;20505;-74
2024/01/13 03:33:30;;;;;;;11.48;10.18;;;;;;;2.32;100.00;102536.69;5089357;28;20133;-74
2024/01/13 03:35:55;;;;;;;11.05;9.75;;;;;;;2.46;100.00;102546.28;5089227;28;20051;-74
2024/01/13 03:38:20;;;;;;;12.37;10.53;;;;;;;2.48;100.00;102544.56;5088526;28;20055;-74
2024/01/13 03:40:46;;;;;;;14.27;10.43;;;;;;;2.46;100.00;102546.28;5087970;28;20028;-74
2024/01/13 03:43:11;;;;;;;9.68;8.77;;;;;;;2.41;100.00;102537.56;5088843;28;20431;-74
2024/01/13 03:45:36;;;;;;;8.60;7.75;;;;;;;2.37;100.00;102529.69;5090044;28;20028;-74
2024/01/13 03:48:02;;;;;;;10.23;7.57;;;;;;;2.39;100.00;102538.44;5095821;28;20123;-74
2024/01/13 03:50:27;;;;;;;8.30;7.03;;;;;;;2.37;100.00;102522.69;5092359;28;20024;-75
2024/01/13 03:52:53;;;;;;;9.25;8.27;;;;;;;2.35;100.00;102510.44;5092255;28;20022;-74
2024/01/13 03:55:19;;;;;;;9.13;8.20;;;;;;;2.47;100.00;102526.16;5091547;28;20822;-74
2024/01/13 03:57:44;;;;;;;10.30;7.97;;;;;;;2.43;100.00;102522.66;5091780;28;20032;-74
2024/01/13 04:00:10;;;;;;;9.77;8.77;;;;;;;2.44;100.00;102521.81;5093025;28;20024;-74
2024/01/13 04:02:35;;;;;;;11.30;8.25;;;;;;;2.45;100.00;102526.19;5093274;28;20023;-74
2024/01/13 04:05:01;;;;;;;6.75;6.18;;;;;;;2.45;100.00;102522.69;5091587;28;20407;-74
2024/01/13 04:07:26;;;;;;;8.43;7.60;;;;;;;2.36;100.00;102513.06;5092761;28;20398;-74
2024/01/13 04:09:51;;;;;;;8.98;8.07;;;;;;;2.43;100.00;102527.91;5092801;28;20119;-74
2024/01/13 04:12:17;;;;;;;8.98;8.00;;;;;;;2.35;100.00;102505.19;5091346;28;20360;-74
2024/01/13 04:14:42;;;;;;;8.00;7.20;;;;;;;2.45;100.00;102512.19;5092430;28;20429;-74
2024/01/13 04:17:07;;;;;;;8.82;7.90;;;;;;;2.30;100.00;102488.59;5092954;28;20035;-74
2024/01/13 04:19:33;;;;;;;8.82;7.93;;;;;;;2.42;100.00;102510.44;5091187;28;20032;-75
2024/01/13 04:21:58;;;;;;;10.10;7.80;;;;;;;2.38;100.00;102503.44;5092685;28;20387;-74
2024/01/13 04:24:26;;;;;;;8.20;6.80;;;;;;;2.40;100.00;102498.19;5090963;28;20024;-74
2024/01/13 04:26:51;;;;;;;8.10;7.28;;;;;;;2.42;100.00;102496.44;5091043;28;20165;-74
2024/01/13 04:29:16;;;;;;;8.93;7.50;;;;;;;2.37;100.00;102495.56;5091410;28;20773;-74
2024/01/13 04:31:42;;;;;;;7.80;7.10;;;;;;;2.36;100.00;102497.31;5092314;28;20066;-74
2024/01/13 04:34:07;;;;;;;8.32;7.50;;;;;;;2.32;100.00;102489.44;5092441;28;20023;-74
2024/01/13 04:36:33;;;;;;;8.45;7.60;;;;;;;2.35;100.00;102492.94;5090725;28;20020;-74
2024/01/13 04:38:58;;;;;;;9.57;7.95;;;;;;;2.24;100.00;102466.72;5092457;28;20271;-74
2024/01/13 04:41:23;;;;;;;8.75;7.85;;;;;;;2.30;100.00;102484.22;5092097;28;20059;-74
2024/01/13 04:43:49;;;;;;;8.88;7.40;;;;;;;2.34;100.00;102487.69;5091414;28;20494;-74
2024/01/13 04:46:15;;;;;;;11.02;7.68;;;;;;;2.31;100.00;102487.72;5091349;28;20486;-74
2024/01/13 04:48:40;;;;;;;9.20;7.50;;;;;;;2.37;100.00;102488.56;5091662;28;20036;-74
2024/01/13 04:51:08;;;;;;;10.43;8.32;;;;;;;2.35;100.00;102487.69;5091068;28;20119;-74
2024/01/13 04:53:33;;;;;;;10.57;7.80;;;;;;;2.24;100.00;102474.59;5092269;28;20114;-74
2024/01/13 04:56:02;;;;;;;9.75;8.25;;;;;;;2.26;100.00;102478.09;5090543;28;20174;-74
2024/01/13 04:58:27;;;;;;;12.67;8.73;;;;;;;2.26;100.00;102471.94;5092182;28;20513;-74
2024/01/13 05:00:55;;;;;;;8.70;7.75;;;;;;;2.31;100.00;102474.56;5091438;28;20040;-74
2024/01/13 05:03:23;;;;;;;9.55;8.45;;;;;;;2.35;100.00;102476.31;5095558;28;20024;-74
2024/01/13 05:05:48;;;;;;;9.35;8.18;;;;;;;2.38;100.00;102468.41;5091062;28;20028;-74
2024/01/13 05:08:14;;;;;;;11.23;8.30;;;;;;;2.36;100.00;102478.94;5090073;28;20383;-75
2024/01/13 05:10:39;;;;;;;9.88;8.10;;;;;;;2.37;100.00;102483.31;5090249;28;20032;-74
2024/01/13 05:13:07;;;;;;;10.82;8.95;;;;;;;2.29;100.00;102469.31;5090665;28;20123;-74
2024/01/13 05:15:32;;;;;;;11.63;9.32;;;;;;;2.34;100.00;102477.19;5090321;28;20028;-74
2024/01/13 05:17:57;;;;;;;10.65;9.07;;;;;;;2.25;100.00;102459.72;5091303;28;20034;-74
2024/01/13 05:20:23;;;;;;;18.83;10.73;;;;;;;2.35;100.00;102474.56;5090620;28;20497;-75
2024/01/13 05:22:48;;;;;;;13.38;10.05;;;;;;;2.26;100.00;102453.56;5091518;28;20034;-74
2024/01/13 05:25:14;;;;;;;20.52;10.05;;;;;;;2.35;100.00;102476.31;5090900;28;20023;-74
2024/01/13 05:27:39;;;;;;;19.80;11.48;;;;;;;2.37;100.00;102480.69;5091857;28;20039;-74
2024/01/13 05:30:09;;;;;;;13.63;10.25;;;;;;;2.35;100.00;102471.06;5091548;28;20471;-75
2024/01/13 05:32:35;;;;;;;17.30;13.35;;;;;;;2.22;100.00;102450.09;5090411;28;20046;-74
2024/01/13 05:35:00;;;;;;;16.98;13.05;;;;;;;2.34;100.00;102470.19;5089755;28;20024;-74
2024/01/13 05:37:28;;;;;;;19.70;14.05;;;;;;;2.30;100.00;102460.59;5090688;28;20027;-74
2024/01/13 05:39:53;;;;;;;20.10;14.82;;;;;;;2.23;100.00;102443.09;5091440;28;20039;-74
2024/01/13 05:42:19;;;;;;;18.25;13.57;;;;;;;2.32;100.00;102455.31;5091041;28;20016;-74
2024/01/13 05:44:44;;;;;;;20.95;14.57;;;;;;;2.33;100.00;102463.19;5090165;28;20441;-74
2024/01/13 05:47:10;;;;;;;25.58;14.98;;;;;;;2.33;100.00;102460.56;5090297;28;20027;-74
2024/01/13 05:49:37;;;;;;;24.35;15.40;;;;;;;2.37;100.00;102462.31;5090930;28;20065;-74
2024/01/13 05:52:03;;;;;;;24.67;15.57;;;;;;;2.29;100.00;102461.44;5089315;28;20542;-74
2024/01/13 05:54:31;;;;;;;25.92;16.80;;;;;;;2.20;100.00;102448.34;5089622;28;20115;-74
2024/01/13 05:56:56;;;;;;;23.35;15.35;;;;;;;2.15;100.00;102443.13;5090496;28;20043;-74
2024/01/13 05:59:22;;;;;;;27.02;17.00;;;;;;;2.28;100.00;102463.19;5090007;28;20513;-74
2024/01/13 06:01:47;;;;;;;22.98;16.20;;;;;;;2.21;100.00;102450.13;5089084;28;20024;-74
2024/01/13 06:04:13;;;;;;;24.83;17.88;;;;;;;2.26;100.00;102466.69;5089698;28;20015;-74
2024/01/13 06:06:38;;;;;;;15.50;11.88;;;;;;;2.33;100.00;102471.06;5089515;28;20490;-74
2024/01/13 06:09:03;;;;;;;19.98;14.90;;;;;;;2.22;100.00;102455.34;5089823;28;20051;-74
2024/01/13 06:11:29;;;;;;;20.25;15.82;;;;;;;2.30;100.00;102475.47;5088880;28;20024;-74
2024/01/13 06:13:56;;;;;;;23.38;16.23;;;;;;;2.17;100.00;102464.97;5102198;28;20028;-75
2024/01/13 06:16:23;;;;;;;22.85;16.05;;;;;;;2.24;100.00;102463.22;5088626;28;20023;-75
2024/01/13 06:18:49;;;;;;;26.90;16.90;;;;;;;2.32;100.00;102460.56;5090473;28;20607;-74
2024/01/13 06:21:16;;;;;;;27.17;17.13;;;;;;;2.33;100.00;102452.69;5090683;28;20127;-74
2024/01/13 06:23:45;;;;;;;25.63;17.20;;;;;;;2.25;100.00;102441.34;5090345;28;20020;-74
2024/01/13 06:26:11;;;;;;;23.63;17.50;;;;;;;2.31;100.00;102449.19;5089204;28;20039;-74
2024/01/13 06:28:36;;;;;;;26.17;17.52;;;;;;;2.33;100.00;102434.31;5088917;28;20266;-75
2024/01/13 06:31:03;;;;;;;29.30;18.00;;;;;;;2.27;100.00;102421.22;5089008;28;20024;-74
2024/01/13 06:33:29;;;;;;;25.45;18.45;;;;;;;2.27;100.00;102413.34;5096806;28;20044;-74
2024/01/13 06:35:55;;;;;;;26.05;16.70;;;;;;;2.37;100.00;102412.41;5089223;28;20156;-75
2024/01/13 06:38:20;;;;;;;16.13;12.68;;;;;;;2.34;100.00;102416.81;5088410;28;20490;-74
2024/01/13 06:40:46;;;;;;;28.30;17.08;;;;;;;2.33;100.00;102410.69;5088862;28;20056;-74
2024/01/13 06:43:13;;;;;;;27.45;17.85;;;;;;;2.31;100.00;102409.81;5091220;28;20500;-75
2024/01/13 06:45:39;;;;;;;24.55;17.38;;;;;;;2.32;100.00;102415.94;5101543;28;20394;-74
2024/01/13 06:48:04;;;;;;;28.08;18.23;;;;;;;2.32;100.00;102421.19;5088277;28;20028;-74
2024/01/13 06:50:29;;;;;;;29.50;17.30;;;;;;;2.27;100.00;102408.09;5089697;28;20078;-74
2024/01/13 06:52:55;;;;;;;16.95;11.85;;;;;;;2.31;100.00;102408.94;5089733;28;20020;-74
2024/01/13 06:55:24;;;;;;;30.70;18.35;;;;;;;2.20;100.00;102407.22;5089643;28;20020;-74
2024/01/13 06:57:51;;;;;;;24.95;17.80;;;;;;;2.23;100.00;102412.47;5088889;28;20073;-74
2024/01/13 07:00:17;;;;;;;23.70;16.60;;;;;;;2.30;100.00;102404.59;5090160;28;20466;-74
2024/01/13 07:02:44;;;;;;;29.33;18.48;;;;;;;2.30;100.00;102391.47;5090273;28;20039;-74
2024/01/13 07:05:10;;;;;;;26.15;17.42;;;;;;;2.20;100.00;102364.34;5088598;28;20035;-75
2024/01/13 07:07:36;;;;;;;25.00;16.98;;;;;;;2.31;100.00;102386.19;5090187;28;20054;-75
2024/01/13 07:10:01;;;;;;;25.38;16.38;;;;;;;2.24;100.00;102368.72;5088118;28;20463;-75
2024/01/13 07:12:26;;;;;;;26.85;17.63;;;;;;;2.27;100.00;102369.59;5090168;28;20038;-74
2024/01/13 07:14:54;;;;;;;23.70;18.40;;;;;;;2.30;100.00;102368.72;5088095;28;20480;-75
2024/01/13 07:17:20;;;;;;;24.42;17.13;;;;;;;2.30;100.00;102365.22;5089337;28;20052;-75
2024/01/13 07:19:45;;;;;;;30.08;19.23;;;;;;;2.30;100.00;102352.97;5089983;28;20062;-74
2024/01/13 07:22:10;;;;;;;26.38;18.77;;;;;;;2.32;100.00;102353.81;5088001;28;20066;-75
2024/01/13 07:24:36;;;;;;;33.95;18.98;;;;;;;2.22;100.00;102341.59;5088740;28;20382;-74
2024/01/13 07:27:01;;;;;;;28.38;18.85;;;;;;;2.32;100.00;102352.94;5092252;28;20519;-74
2024/01/13 07:29:26;;;;;;;19.80;14.40;;;;;;;2.32;100.00;102347.69;5092842;28;20028;-75
2024/01/13 07:31:52;;;;;;;16.98;14.02;;;;;;;2.33;100.00;102337.19;5091887;28;20095;-74
2024/01/13 07:34:17;;;;;;;28.67;17.77;;;;;;;2.24;100.00;102326.75;5092550;28;20049;-75
2024/01/13 07:36:43;;;;;;;27.75;18.27;;;;;;;2.36;100.00;102333.69;5093977;28;20046;-75
2024/01/13 07:39:09;;;;;;;27.90;18.67;;;;;;;2.28;100.00;102329.31;5092222;28;20269;-74
2024/01/13 07:41:38;;;;;;;28.77;18.52;;;;;;;2.27;100.00;102332.84;5091784;28;20035;-75
2024/01/13 07:44:03;;;;;;;23.77;16.05;;;;;;;2.25;100.00;102333.72;5092921;28;20463;-75
2024/01/13 07:46:29;;;;;;;27.83;19.25;;;;;;;2.24;100.00;102342.50;5092467;28;20031;-75
2024/01/13 07:48:56;;;;;;;28.10;19.85;;;;;;;2.34;100.00;102348.56;5091582;28;20044;-75
2024/01/13 07:51:22;;;;;;;25.20;17.83;;;;;;;2.22;100.00;102312.75;5092069;28;20027;-75
2024/01/13 07:53:47;;;;;;;24.95;18.00;;;;;;;2.23;100.00;102317.09;5100710;28;20040;-74
2024/01/13 07:56:13;;;;;;;23.95;16.83;;;;;;;2.31;100.00;102322.31;5091391;28;20474;-74
2024/01/13 07:58:38;;;;;;;20.13;14.40;;;;;;;2.41;100.00;102308.25;5093200;28;20305;-75
2024/01/13 08:01:04;;;;;;;26.55;18.48;;;;;;;2.26;100.00;102299.59;5092779;28;20492;-75
2024/01/13 08:03:31;;;;;;;26.98;17.17;;;;;;;2.36;100.00;102300.41;5093121;28;20035;-75
2024/01/13 08:05:57;;;;;;;23.05;17.77;;;;;;;2.23;100.00;102277.72;5093242;28;20035;-75
2024/01/13 08:08:22;;;;;;;28.50;18.58;;;;;;;2.30;100.00;102303.06;5091511;28;20032;-75
2024/01/13 08:10:47;;;;;;;27.47;18.90;;;;;;;2.27;100.00;102296.09;5091023;28;20020;-75
2024/01/13 08:13:14;;;;;;;27.23;18.20;;;;;;;2.23;100.00;102281.22;5091855;28;20050;-75
2024/01/13 08:15:39;;;;;;;23.65;17.00;;;;;;;2.30;100.00;102278.59;5091442;28;20062;-75
2024/01/13 08:18:09;;;;;;;29.98;17.88;;;;;;;2.30;100.00;102263.69;5091986;28;20402;-76
2024/01/13 08:20:34;;;;;;;24.30;17.50;;;;;;;2.42;100.00;102279.38;5092884;28;21631;-75
2024/01/13 08:23:00;;;;;;;23.70;17.02;;;;;;;2.36;100.00;102291.69;5091475;28;20020;-75
2024/01/13 08:25:26;;;;;;;18.80;13.65;;;;;;;2.32;100.00;102288.16;5091313;28;20347;-75
2024/01/13 08:27:51;;;;;;;27.90;17.92;;;;;;;2.28;100.00;102268.94;5091710;28;20051;-75
2024/01/13 08:30:16;;;;;;;28.40;18.60;;;;;;;2.41;100.00;102269.78;5091788;28;20024;-75
2024/01/13 08:32:44;;;;;;;27.23;18.00;;;;;;;2.39;100.00;102265.41;5091668;28;20111;-76
2024/01/13 08:35:12;;;;;;;25.73;18.17;;;;;;;2.33;100.00;102257.56;5089881;28;20062;-75
2024/01/13 08:37:37;;;;;;;28.20;18.08;;;;;;;2.37;100.00;102269.78;5091249;28;20098;-75
2024/01/13 08:40:04;;;;;;;23.45;16.85;;;;;;;2.41;100.00;102272.38;5090340;28;20107;-75
2024/01/13 08:42:30;;;;;;;29.80;18.73;;;;;;;2.38;100.00;102259.28;5092111;28;20016;-74
2024/01/13 08:44:56;;;;;;;25.05;16.27;;;;;;;2.39;100.00;102255.75;5091969;28;20438;-74
2024/01/13 08:47:21;;;;;;;29.42;19.55;;;;;;;2.33;100.00;102257.56;5091862;28;20461;-73
2024/01/13 08:49:49;;;;;;;31.30;20.00;;;;;;;2.37;100.00;102269.78;5092937;28;20079;-73
2024/01/13 08:52:14;;;;;;;28.77;19.73;;;;;;;2.38;100.00;102282.91;5092806;28;20042;-73
2024/01/13 08:54:39;;;;;;;29.33;19.60;;;;;;;2.44;100.00;102284.59;5092301;28;20024;-73
2024/01/13 08:57:05;;;;;;;24.77;17.40;;;;;;;2.43;100.00;102294.25;5092415;28;20031;-73
2024/01/13 08:59:33;;;;;;;28.60;17.60;;;;;;;2.40;100.00;102286.38;5091696;28;20885;-73
2024/01/13 09:02:00;;;;;;;28.95;19.70;;;;;;;2.39;100.00;102282.03;5092563;28;20576;-73
2024/01/13 09:04:28;;;;;;;27.20;17.92;;;;;;;2.47;100.00;102289.84;5091452;28;20039;-73
2024/01/13 09:06:53;;;;;;;31.33;20.13;;;;;;;2.34;100.00;102270.66;5091621;28;20069;-73
2024/01/13 09:09:18;;;;;;;23.45;16.30;;;;;;;2.44;100.00;102272.38;5092893;28;20035;-73
2024/01/13 09:11:46;;;;;;;31.60;17.75;;;;;;;2.48;100.00;102291.59;5092261;28;20024;-73
2024/01/13 09:14:12;;;;;;;28.65;20.67;;;;;;;2.42;100.00;102282.00;5092400;28;20043;-73
2024/01/13 09:16:38;;;;;;;31.88;21.13;;;;;;;2.41;100.00;102274.13;5090203;28;20016;-74
2024/01/13 09:19:08;;;;;;;30.73;20.23;;;;;;;2.37;100.00;102268.03;5089751;28;20478;-74
2024/01/13 09:21:36;;;;;;;32.33;20.73;;;;;;;2.47;100.00;102282.84;5089670;28;20020;-74
2024/01/13 09:24:01;;;;;;;18.30;13.07;;;;;;;2.54;100.00;102282.81;5089894;28;20020;-74
2024/01/13 09:26:26;;;;;;;28.73;18.52;;;;;;;2.47;100.00;102281.94;5089508;28;20513;-74
2024/01/13 09:28:52;;;;;;;25.38;17.15;;;;;;;2.46;100.00;102272.34;5090724;28;20035;-74
2024/01/13 09:31:18;;;;;;;21.73;16.13;;;;;;;2.52;100.00;102281.94;5091090;28;20020;-74
2024/01/13 09:33:43;;;;;;;25.77;16.53;;;;;;;2.44;100.00;102264.50;5089854;28;20035;-74
2024/01/13 09:36:08;;;;;;;24.08;17.25;;;;;;;2.40;100.00;102261.88;5089440;28;20473;-74
2024/01/13 09:38:36;;;;;;;29.38;18.10;;;;;;;2.46;100.00;102267.97;5089800;28;20035;-74
2024/01/13 09:41:02;;;;;;;31.10;19.70;;;;;;;2.47;100.00;102266.19;5089867;28;20032;-74
2024/01/13 09:43:55;;;;;;;27.55;18.85;;;;;;;2.62;100.00;102283.63;5089383;28;20031;-74
2024/01/13 09:46:21;;;;;;;29.42;18.20;;;;;;;2.53;100.00;102273.16;5090041;28;20024;-73
2024/01/13 09:48:48;;;;;;;21.05;16.27;;;;;;;2.50;100.00;102267.06;5090686;28;20471;-72
2024/01/13 09:51:15;;;;;;;25.83;18.90;;;;;;;2.49;100.00;102252.19;5090185;28;20034;-74
2024/01/13 09:53:47;;;;;;;27.05;17.65;;;;;;;2.59;100.00;102275.75;5088906;28;20358;-74
2024/01/13 09:56:24;;;;;;;27.98;17.50;;;;;;;2.54;100.00;102256.56;5090324;28;20106;-73
2024/01/13 09:58:50;;;;;;;22.98;15.60;;;;;;;2.54;100.00;102249.53;5088874;28;20036;-73
2024/01/13 10:01:15;;;;;;;12.65;10.93;;;;;;;2.52;100.00;102251.28;5088793;28;20085;-74
2024/01/13 10:03:40;;;;;;;24.48;17.75;;;;;;;2.48;100.00;102244.34;5088969;28;20111;-73
2024/01/13 10:06:07;;;;;;;23.10;16.13;;;;;;;2.59;100.00;102253.00;5087928;28;20038;-72
2024/01/13 10:08:33;;;;;;;23.38;16.08;;;;;;;2.56;100.00;102236.38;5090360;28;20020;-73
2024/01/13 10:11:04;;;;;;;27.98;17.75;;;;;;;2.54;100.00;102246.03;5089184;28;20059;-74
2024/01/13 10:13:30;;;;;;;24.52;16.25;;;;;;;2.55;100.00;102238.13;5090227;28;20020;-73
2024/01/13 10:15:55;;;;;;;21.80;17.42;;;;;;;2.54;100.00;102228.53;5089366;28;20035;-74
2024/01/13 10:18:26;;;;;;;16.95;13.77;;;;;;;2.69;100.00;102236.28;5088619;28;20429;-74
2024/01/13 10:20:54;;;;;;;16.35;12.27;;;;;;;2.66;100.00;102244.19;5087687;28;20391;-74
2024/01/13 10:23:19;;;;;;;18.08;13.85;;;;;;;2.70;100.00;102248.53;5088784;28;20100;-73
2024/01/13 10:25:45;;;;;;;25.00;17.73;;;;;;;2.51;100.00;102231.19;5094782;28;20462;-74
2024/01/13 10:28:10;;;;;;;22.70;16.50;;;;;;;2.56;100.00;102226.78;5088156;28;20085;-74
2024/01/13 10:30:36;;;;;;;16.70;12.63;;;;;;;2.55;100.00;102219.75;5087931;28;20086;-71
2024/01/13 10:33:02;;;;;;;18.85;13.60;;;;;;;2.66;100.00;102232.81;5087772;28;20036;-66
2024/01/13 10:35:27;;;;;;;23.17;17.08;;;;;;;2.50;100.00;102211.94;5087911;28;20028;-65
2024/01/13 10:37:57;;;;;;;20.17;15.80;;;;;;;2.64;100.00;102226.69;5089487;28;20081;-65
2024/01/13 10:40:22;;;;;;;24.27;17.83;;;;;;;2.60;100.00;102220.59;5088197;28;20043;-65
2024/01/13 10:42:53;;;;;;;25.70;17.58;;;;;;;2.63;100.00;102222.34;5089273;28;20020;-65
2024/01/13 10:45:24;;;;;;;23.42;16.52;;;;;;;2.54;100.00;102204.03;5089565;28;20107;-65
2024/01/13 10:47:55;;;;;;;25.92;17.58;;;;;;;2.64;100.00;102213.56;5088926;28;20035;-65
2024/01/13 10:50:21;;;;;;;23.45;15.90;;;;;;;2.51;100.00;102197.03;5089777;28;20036;-64
2024/01/13 10:53:21;;;;;;;30.35;16.85;;;;;;;2.65;100.00;102213.56;5092832;28;20024;-63
2024/01/13 10:55:49;;;;;;;22.30;16.55;;;;;;;2.61;100.00;102205.72;5071340;28;20110;-63
2024/01/13 10:58:16;;;;;;;30.45;18.25;;;;;;;2.62;100.00;102210.97;5082746;28;20040;-63
2024/01/13 11:00:43;;;;;;;26.27;18.73;;;;;;;2.63;100.00;102201.31;5088233;28;20450;-63
2024/01/13 11:03:08;;;;;;;28.42;18.05;;;;;;;2.58;100.00;102185.59;5087223;28;20020;-63
2024/01/13 11:05:36;;;;;;;26.27;18.00;;;;;;;2.61;100.00;102185.56;5088704;28;20502;-65
2024/01/13 11:08:04;;;;;;;27.40;18.35;;;;;;;2.68;100.00;102183.78;5088457;28;20051;-65